Date,TemperatureHighF,TemperatureAvgF,TemperatureLowF,DewpointHighF,DewpointAvgF,DewpointLowF,HumidityHigh,HumidityAvg,HumidityLow,PressureMaxIn,PressureMinIn,WindSpeedMaxMPH,WindSpeedAvgMPH,GustSpeedMaxMPH,PrecipitationSumIn
2013-1-1,45,43,41,39,37,33,84,79,73,29.93,29.37,17,6,17,0.01
2013-1-2,50,46,43,48,44,38,95,91,83,30.17,29.92,14,4,14,0.08
2013-1-3,50,49,48,48,47,46,95,94,93,30.48,30.16,17,5,17,0.02
2013-1-4,48,48,47,47,46,45,95,93,91,30.53,30.45,11,3,11,0.04
2013-1-5,52,49,47,46,45,42,92,86,74,30.47,30.35,15,3,15,0.01
2013-1-6,50,48,45,48,45,43,95,90,84,30.43,30.23,12,3,12,0.00
2013-1-7,50,48,46,45,44,42,88,86,83,30.23,30.04,12,4,12,0.02
2013-1-8,51,48,38,49,45,37,95,91,84,30.15,30.01,11,3,11,0.20
2013-1-9,40,37,32,39,35,30,96,94,90,30.15,30.01,4,1,4,0.02
2013-1-10,39,35,32,38,33,30,96,92,91,30.01,29.87,4,1,4,0.00
2013-1-11,40,36,32,38,34,30,96,91,84,30.00,29.86,10,1,10,0.01
2013-1-12,41,37,29,35,31,25,87,79,67,30.03,29.83,17,4,17,0.00
2013-1-13,36,32,28,31,28,23,90,85,75,30.12,29.97,11,2,11,0.07
2013-1-14,39,35,31,37,32,28,93,88,85,29.98,29.64,7,1,7,0.07
2013-1-15,40,32,27,37,27,21,90,82,64,29.82,29.69,4,0,4,0.01
2013-1-16,35,32,27,24,22,18,76,67,57,29.93,29.75,11,1,11,0.00
2013-1-17,36,34,30,27,24,20,77,67,61,29.94,29.73,22,7,22,0.00
2013-1-18,34,32,30,25,23,20,76,70,61,29.73,29.40,25,8,25,0.00
2013-1-19,35,34,32,27,25,23,76,71,65,29.57,29.43,11,3,11,0.00
2013-1-20,36,35,33,27,25,23,73,68,64,29.55,29.32,11,3,11,0.00
2013-1-21,35,33,31,30,28,24,82,79,73,29.37,29.24,8,2,8,0.06
2013-1-22,44,35,31,31,27,23,80,73,59,29.73,29.37,11,2,11,0.00
2013-1-23,37,34,29,28,26,22,81,73,68,29.85,29.72,14,2,14,0.01
2013-1-24,41,35,28,28,25,19,82,67,55,30.04,29.84,12,4,12,0.00
2013-1-25,36,33,31,32,26,18,89,74,57,29.99,29.37,27,11,27,0.57
2013-1-26,45,37,32,40,33,29,93,86,79,29.61,29.12,17,4,17,0.21
2013-1-27,48,42,38,45,36,33,92,76,69,29.35,28.94,21,8,21,0.15
2013-1-28,48,43,40,43,38,33,92,80,70,29.48,29.07,27,10,27,0.21
2013-1-29,52,47,44,49,43,39,92,83,73,29.44,29.15,27,8,27,0.11
2013-1-30,47,44,41,43,39,36,91,83,76,29.79,29.25,23,8,23,0.14
2013-1-31,47,44,42,39,37,35,84,77,70,29.77,29.44,22,8,22,0.07